createdAt,value
2023-05-14T00:00:46.838Z,101067.73
2023-05-14T00:05:48.447Z,101067.55
2023-05-14T00:10:50.047Z,101067.33
2023-05-14T00:15:51.605Z,101067.64
2023-05-14T00:20:55.035Z,101063.44
2023-05-14T00:25:56.722Z,101056.67
2023-05-14T00:31:05.188Z,101051.99
2023-05-14T00:36:07.973Z,101049.51
2023-05-14T00:41:09.544Z,101048.23
2023-05-14T00:46:12.498Z,101050.20
2023-05-14T00:51:14.288Z,101053.02
2023-05-14T00:56:16.646Z,101047.45
2023-05-14T01:01:18.215Z,101041.00
2023-05-14T01:06:36.776Z,101050.52
2023-05-14T01:11:47.612Z,101051.28
2023-05-14T01:16:53.148Z,101049.25
2023-05-14T01:21:54.860Z,101046.37
2023-05-14T01:27:03.273Z,101045.92
2023-05-14T01:32:08.009Z,101042.20
2023-05-14T01:37:12.668Z,101041.20
2023-05-14T01:42:17.239Z,101037.48
2023-05-14T01:47:19.074Z,101034.07
2023-05-14T01:52:21.257Z,101038.21
2023-05-14T01:57:22.765Z,101033.45
2023-05-14T02:02:24.410Z,101029.17
2023-05-14T02:07:26.407Z,101026.64
2023-05-14T02:12:28.002Z,101025.98
2023-05-14T02:17:29.656Z,101030.11
2023-05-14T02:22:31.262Z,101022.27
2023-05-14T02:27:32.791Z,101021.59
2023-05-14T02:32:34.453Z,101021.96
2023-05-14T02:37:36.185Z,101024.18
2023-05-14T02:42:37.736Z,101021.11
2023-05-14T02:47:39.242Z,101024.02
2023-05-14T02:52:40.927Z,101017.52
2023-05-14T02:57:42.409Z,101011.02
2023-05-14T03:02:44.773Z,101015.11
2023-05-14T03:07:46.916Z,101010.98
2023-05-14T03:12:48.541Z,101012.85
2023-05-14T03:17:50.139Z,101016.13
2023-05-14T03:22:52.216Z,101009.27
2023-05-14T03:27:53.714Z,100997.53
2023-05-14T03:32:55.597Z,101000.98
2023-05-14T03:37:59.242Z,100996.91
2023-05-14T03:43:00.820Z,100999.71
2023-05-14T03:48:03.554Z,100993.25
2023-05-14T03:53:05.404Z,100993.04
2023-05-14T03:58:11.068Z,100990.58
2023-05-14T04:03:12.652Z,100992.48
2023-05-14T04:08:14.317Z,100995.30
2023-05-14T04:13:15.838Z,100999.27
2023-05-14T04:18:17.368Z,100998.46
2023-05-14T04:23:18.917Z,100997.56
2023-05-14T04:28:20.776Z,100994.48
2023-05-14T04:33:22.686Z,100999.17
2023-05-14T04:38:24.177Z,101003.67
2023-05-14T04:43:25.868Z,101007.34
2023-05-14T04:48:27.853Z,101006.30
2023-05-14T04:53:29.740Z,101006.28
2023-05-14T04:58:34.617Z,101005.63
2023-05-14T05:03:36.786Z,101003.41
2023-05-14T05:08:38.395Z,101002.39
2023-05-14T05:13:39.952Z,101004.77
2023-05-14T05:18:41.721Z,101001.55
2023-05-14T05:23:43.880Z,100998.75
2023-05-14T05:28:45.507Z,100997.87
2023-05-14T05:33:47.030Z,101002.51
2023-05-14T05:38:48.525Z,101000.77
2023-05-14T05:43:50.018Z,101000.34
2023-05-14T05:48:53.322Z,101002.38
2023-05-14T05:53:54.843Z,101005.52
2023-05-14T05:58:56.366Z,101003.27
2023-05-14T06:03:58.026Z,101005.40
2023-05-14T06:08:59.569Z,101003.17
2023-05-14T06:14:01.376Z,100998.85
2023-05-14T06:19:03.238Z,100994.07
2023-05-14T06:24:05.723Z,100998.36
2023-05-14T06:29:07.374Z,101000.59
2023-05-14T06:34:09.340Z,100995.00
2023-05-14T06:39:10.897Z,100991.90
2023-05-14T06:44:12.464Z,100989.27
2023-05-14T06:49:14.090Z,100985.23
2023-05-14T06:54:15.733Z,100988.39
2023-05-14T06:59:17.355Z,100975.06
2023-05-14T07:04:18.860Z,100973.98
2023-05-14T07:09:20.448Z,100970.83
2023-05-14T07:14:21.966Z,100971.39
2023-05-14T07:19:23.575Z,100965.16
2023-05-14T07:24:25.097Z,100964.04
2023-05-14T07:29:26.637Z,100955.60
2023-05-14T07:34:28.251Z,100955.55
2023-05-14T07:39:29.750Z,100957.39
2023-05-14T07:44:31.256Z,100951.84
2023-05-14T07:49:32.788Z,100948.41
2023-05-14T07:54:34.369Z,100944.70
2023-05-14T07:59:35.933Z,100938.61
2023-05-14T08:04:37.579Z,100932.21
2023-05-14T08:09:39.237Z,100930.64
2023-05-14T08:14:40.742Z,100922.59
2023-05-14T08:19:42.252Z,100918.11
2023-05-14T08:24:43.791Z,100912.65
2023-05-14T08:29:45.338Z,100905.02
2023-05-14T08:34:46.825Z,100901.87
2023-05-14T08:39:49.177Z,100899.03
2023-05-14T08:45:00.591Z,100892.50
2023-05-14T08:50:08.259Z,100886.86
2023-05-14T08:55:11.799Z,100886.64
2023-05-14T09:00:15.169Z,100884.95
2023-05-14T09:05:18.426Z,100884.17
2023-05-14T09:10:21.080Z,100879.32
2023-05-14T09:15:24.728Z,100880.06
2023-05-14T09:20:26.817Z,100873.64
2023-05-14T09:25:32.424Z,100870.14
2023-05-14T09:30:41.370Z,100873.55
2023-05-14T09:35:43.482Z,100871.20
2023-05-14T09:40:46.715Z,100870.05
2023-05-14T09:45:48.260Z,100870.07
2023-05-14T09:50:49.876Z,100867.52
2023-05-14T09:55:51.592Z,100868.77
2023-05-14T10:00:58.761Z,100859.37
2023-05-14T10:06:04.919Z,100854.66
2023-05-14T10:11:12.405Z,100849.02
2023-05-14T10:16:22.005Z,100836.50
2023-05-14T10:21:24.373Z,100837.99
2023-05-14T10:26:26.446Z,100829.93
2023-05-14T10:31:45.302Z,100829.90
2023-05-14T10:36:46.992Z,100828.36
2023-05-14T10:41:48.504Z,100822.90
2023-05-14T10:46:50.246Z,100828.55
2023-05-14T10:51:53.516Z,100814.14
2023-05-14T10:56:59.604Z,100781.73
2023-05-14T11:02:04.792Z,100774.75
2023-05-14T11:07:06.844Z,100768.01
2023-05-14T11:12:09.162Z,100765.44
2023-05-14T11:17:10.674Z,100746.30
2023-05-14T11:22:15.180Z,100745.02
2023-05-14T11:27:18.177Z,100734.33
2023-05-14T11:32:20.543Z,100727.83
2023-05-14T11:37:22.738Z,100717.50
2023-05-14T11:42:25.832Z,100719.89
2023-05-14T11:47:29.566Z,100715.52
2023-05-14T11:52:31.322Z,100699.36
2023-05-14T11:57:32.910Z,100692.58
2023-05-14T12:02:34.762Z,100686.48
2023-05-14T12:07:36.314Z,100676.67
2023-05-14T12:12:37.824Z,100670.38
2023-05-14T12:17:39.907Z,100670.70
2023-05-14T12:22:49.037Z,100659.16
2023-05-14T12:27:50.787Z,100655.02
2023-05-14T12:32:53.171Z,100650.93
2023-05-14T12:37:54.889Z,100646.27
2023-05-14T12:42:57.020Z,100639.41
2023-05-14T12:47:58.653Z,100637.20
2023-05-14T12:53:00.285Z,100635.83
2023-05-14T12:58:02.039Z,100623.96
2023-05-14T13:03:03.652Z,100620.66
2023-05-14T13:08:05.363Z,100615.46
2023-05-14T13:13:06.912Z,100616.82
2023-05-14T13:18:08.510Z,100614.27
2023-05-14T13:23:10.111Z,100606.46
2023-05-14T13:28:11.730Z,100603.18
2023-05-14T13:33:13.345Z,100593.34
2023-05-14T13:38:15.136Z,100585.38
2023-05-14T13:43:17.021Z,100581.14
2023-05-14T13:48:19.087Z,100581.23
2023-05-14T13:53:22.949Z,100576.92
2023-05-14T13:58:25.486Z,100570.66
2023-05-14T14:03:27.075Z,100557.39
2023-05-14T14:08:28.739Z,100554.39
2023-05-14T14:13:30.293Z,100542.27
2023-05-14T14:18:32.409Z,100534.63
2023-05-14T14:23:34.091Z,100525.48
2023-05-14T14:28:35.937Z,100525.45
2023-05-14T14:33:37.539Z,100520.85
2023-05-14T14:38:39.642Z,100504.21
2023-05-14T14:43:41.443Z,100499.81
2023-05-14T14:48:44.014Z,100507.67
2023-05-14T14:53:45.549Z,100502.09
2023-05-14T14:58:47.060Z,100498.61
2023-05-14T15:03:49.146Z,100492.63
2023-05-14T15:08:50.704Z,100497.20
2023-05-14T15:13:52.323Z,100489.99
2023-05-14T15:18:54.183Z,100486.26
2023-05-14T15:23:56.005Z,100482.73
2023-05-14T15:28:59.016Z,100479.23
2023-05-14T15:34:00.838Z,100476.16
2023-05-14T15:39:02.401Z,100475.30
2023-05-14T15:44:04.126Z,100478.04
2023-05-14T15:49:06.121Z,100470.41
2023-05-14T15:54:07.681Z,100468.29
2023-05-14T15:59:09.594Z,100460.77
2023-05-14T16:04:14.328Z,100456.73
2023-05-14T16:09:15.833Z,100447.72
2023-05-14T16:14:18.476Z,100451.70
2023-05-14T16:19:20.888Z,100448.91
2023-05-14T16:24:22.424Z,100438.29
2023-05-14T16:29:24.022Z,100434.84
2023-05-14T16:34:25.583Z,100420.92
2023-05-14T16:39:27.268Z,100424.23
2023-05-14T16:44:28.836Z,100413.50
2023-05-14T16:49:30.378Z,100415.95
2023-05-14T16:54:31.905Z,100414.51
2023-05-14T16:59:33.567Z,100403.99
2023-05-14T17:04:38.810Z,100403.13
2023-05-14T17:09:40.951Z,100407.52
2023-05-14T17:14:44.600Z,100405.39
2023-05-14T17:19:46.303Z,100408.94
2023-05-14T17:24:47.800Z,100412.04
2023-05-14T17:29:51.231Z,100410.14
2023-05-14T17:34:52.845Z,100407.72
2023-05-14T17:39:54.424Z,100406.38
2023-05-14T17:44:55.942Z,100403.98
2023-05-14T17:49:57.662Z,100398.76
2023-05-14T17:54:59.227Z,100394.50
2023-05-14T18:00:00.898Z,100390.73
2023-05-14T18:05:03.037Z,100391.06
2023-05-14T18:10:05.477Z,100382.02
2023-05-14T18:15:07.471Z,100381.69
2023-05-14T18:20:09.654Z,100383.25
2023-05-14T18:25:12.882Z,100383.55
2023-05-14T18:30:15.341Z,100384.09
2023-05-14T18:35:16.911Z,100392.04
2023-05-14T18:40:18.868Z,100389.86
2023-05-14T18:45:21.675Z,100391.73
2023-05-14T18:50:23.294Z,100391.14
2023-05-14T18:55:25.119Z,100392.25
2023-05-14T19:00:26.851Z,100391.83
2023-05-14T19:05:28.389Z,100394.07
2023-05-14T19:10:30.204Z,100388.13
2023-05-14T19:15:32.450Z,100384.55
2023-05-14T19:20:33.987Z,100372.88
2023-05-14T19:25:35.671Z,100366.45
2023-05-14T19:30:41.841Z,100366.08
2023-05-14T19:35:43.524Z,100366.04
2023-05-14T19:40:46.110Z,100361.16
2023-05-14T19:45:47.873Z,100357.64
2023-05-14T19:50:49.398Z,100359.95
2023-05-14T19:55:50.885Z,100360.71
2023-05-14T20:00:55.493Z,100360.40
2023-05-14T20:05:58.030Z,100354.95
2023-05-14T20:10:59.573Z,100354.70
2023-05-14T20:16:01.364Z,100353.20
2023-05-14T20:21:02.877Z,100349.31
2023-05-14T20:26:04.477Z,100343.96
2023-05-14T20:31:06.079Z,100341.38
2023-05-14T20:36:07.935Z,100330.40
2023-05-14T20:41:09.452Z,100326.63
2023-05-14T20:46:11.098Z,100322.63
2023-05-14T20:51:12.704Z,100316.56
2023-05-14T20:56:14.308Z,100307.98
2023-05-14T21:01:15.844Z,100304.05
2023-05-14T21:06:17.329Z,100301.71
2023-05-14T21:11:20.691Z,100297.29
2023-05-14T21:16:22.447Z,100291.89
2023-05-14T21:21:24.216Z,100291.89
2023-05-14T21:26:26.032Z,100287.98
2023-05-14T21:31:27.538Z,100280.45
2023-05-14T21:36:29.070Z,100279.45
2023-05-14T21:41:32.445Z,100276.50
2023-05-14T21:46:34.136Z,100271.17
2023-05-14T21:51:35.983Z,100269.45
2023-05-14T21:56:37.524Z,100267.73
2023-05-14T22:01:50.983Z,100259.94
2023-05-14T22:07:00.641Z,100258.24
2023-05-14T22:12:02.185Z,100254.44
2023-05-14T22:17:04.740Z,100246.98
2023-05-14T22:22:06.231Z,100245.70
2023-05-14T22:27:07.775Z,100241.80
2023-05-14T22:32:10.276Z,100234.13
2023-05-14T22:37:11.776Z,100228.34
2023-05-14T22:42:13.556Z,100219.11
2023-05-14T22:47:15.994Z,100210.52
2023-05-14T22:52:18.916Z,100203.71
2023-05-14T22:57:20.575Z,100194.31
2023-05-14T23:02:22.228Z,100188.29
2023-05-14T23:07:23.802Z,100186.64
2023-05-14T23:12:26.091Z,100184.25
2023-05-14T23:17:27.677Z,100179.30
2023-05-14T23:22:29.378Z,100169.30
2023-05-14T23:27:30.864Z,100163.27
2023-05-14T23:32:32.384Z,100162.28
2023-05-14T23:37:33.988Z,100147.74
2023-05-14T23:42:36.053Z,100144.38
2023-05-14T23:47:37.600Z,100135.04
2023-05-14T23:52:39.142Z,100130.69
2023-05-14T23:57:41.125Z,100120.73
